Terminal Aerodrome Forecast
Issued by NWS Shreveport, LA

Home | Current Version | Previous Version | Text Only | Print | Product List | Glossary On
Versions: 1 2 3 4 5 6 7 8 9 10 11 12 13
000
FTUS44 KSHV 201728
TAFTYR
TAF
KTYR 201728Z 2018/2118 16011G20KT P6SM VCSH SKC
     FM210200 14010KT P6SM BKN040
     FM210500 16009KT P6SM BKN020
     FM211000 17014G20KT P6SM BKN010
     FM211500 17014G20KT P6SM BKN020=

USA.gov is the U.S. government's official web portal to all federal, state and local government web resources and services.